Time;durP1;ratioP1;P1;durP2;ratioP2;P2;SDS_P1;SDS_P2;PMS_P1;PMS_P2;Temp;Humidity;BMP_temperature;BMP_pressure;BME280_temperature;BME280_humidity;BME280_pressure;Samples;Min_cycle;Max_cycle;Signal;HPM_P1;HPM_P2
2023/09/21 00:01:06;;;;;;;27.20;4.28;;;27.40;99.90;;;;;;5031992;28;20366;-74
2023/09/21 00:03:37;;;;;;;21.00;3.67;;;27.40;99.90;;;;;;5032025;28;20028;-74
2023/09/21 00:06:04;;;;;;;39.58;4.47;;;27.40;99.90;;;;;;5031293;28;20334;-73
2023/09/21 00:08:31;;;;;;;23.95;3.85;;;27.30;99.90;;;;;;5031538;28;20462;-74
2023/09/21 00:11:07;;;;;;;26.38;4.57;;;27.40;99.90;;;;;;5030963;28;20576;-73
2023/09/21 00:13:33;;;;;;;;;;;27.40;99.90;;;;;;5031446;28;20466;-74
2023/09/21 00:16:02;;;;;;;;;;;27.30;99.90;;;;;;5031317;28;19905;-73
2023/09/21 00:18:32;;;;;;;35.22;4.43;;;27.20;99.90;;;;;;5031119;28;19961;-73
2023/09/21 00:21:01;;;;;;;32.67;4.60;;;27.20;99.90;;;;;;5029614;28;20125;-73
2023/09/21 00:23:27;;;;;;;31.42;4.55;;;27.20;99.90;;;;;;5029350;28;20025;-73
2023/09/21 00:25:57;;;;;;;31.60;4.65;;;27.10;99.90;;;;;;5030798;28;20025;-73
2023/09/21 00:28:24;;;;;;;26.88;4.65;;;27.10;99.90;;;;;;5031152;28;20461;-73
2023/09/21 00:30:54;;;;;;;26.63;4.65;;;27.00;99.90;;;;;;5030860;28;20029;-73
2023/09/21 00:33:21;;;;;;;30.48;5.03;;;27.00;99.90;;;;;;5030808;28;20105;-74
2023/09/21 00:35:48;;;;;;;37.15;5.22;;;27.00;99.90;;;;;;5030773;28;20104;-73
2023/09/21 00:38:17;;;;;;;30.38;4.55;;;26.90;99.90;;;;;;5030619;28;20075;-74
2023/09/21 00:40:43;;;;;;;27.73;4.63;;;27.00;99.90;;;;;;5030487;28;20163;-73
2023/09/21 00:43:20;;;;;;;24.92;4.05;;;27.00;99.90;;;;;;5030755;28;20046;-73
2023/09/21 00:45:52;;;;;;;25.98;4.72;;;27.00;99.90;;;;;;5030509;28;20224;-73
2023/09/21 00:48:25;;;;;;;32.95;5.38;;;27.00;99.90;;;;;;5030367;28;20025;-74
2023/09/21 00:50:58;;;;;;;36.67;4.88;;;27.00;99.90;;;;;;5031013;28;20021;-73
2023/09/21 00:53:27;;;;;;;27.02;4.45;;;27.00;99.90;;;;;;5030783;28;20028;-73
2023/09/21 00:56:04;;;;;;;29.70;4.57;;;27.10;99.90;;;;;;5030020;28;20033;-72
2023/09/21 00:58:31;;;;;;;;;;;27.10;99.90;;;;;;5029405;28;20474;-73
2023/09/21 01:00:59;;;;;;;29.02;4.13;;;27.10;99.90;;;;;;5029123;28;19905;-73
2023/09/21 01:03:27;;;;;;;31.63;4.30;;;27.10;99.90;;;;;;5028922;28;20445;-73
2023/09/21 01:05:54;;;;;;;30.70;5.15;;;27.10;99.90;;;;;;5028891;28;20555;-73
2023/09/21 01:08:28;;;;;;;38.92;5.22;;;27.10;99.90;;;;;;5030509;28;20025;-74
2023/09/21 01:10:56;;;;;;;29.63;4.35;;;27.10;99.90;;;;;;5030742;28;20029;-74
2023/09/21 01:13:25;;;;;;;26.25;4.45;;;27.30;99.90;;;;;;5030685;28;20030;-74
2023/09/21 01:16:01;;;;;;;21.80;4.45;;;27.20;99.90;;;;;;5030815;28;20135;-74
2023/09/21 01:18:27;;;;;;;28.67;4.15;;;27.30;99.90;;;;;;5030344;28;20394;-74
2023/09/21 01:20:55;;;;;;;28.35;4.43;;;27.30;99.90;;;;;;5030604;28;20030;-74
2023/09/21 01:23:33;;;;;;;27.85;4.32;;;27.30;99.90;;;;;;5030350;28;20140;-76
2023/09/21 01:26:00;;;;;;;26.88;4.75;;;27.30;99.90;;;;;;5030470;28;20122;-73
2023/09/21 01:28:29;;;;;;;30.17;4.47;;;27.30;99.90;;;;;;5030293;28;20100;-74
2023/09/21 01:30:58;;;;;;;26.55;4.90;;;27.30;99.90;;;;;;5030264;28;20441;-74
2023/09/21 01:33:24;;;;;;;28.38;4.80;;;27.30;99.90;;;;;;5030288;28;20030;-74
2023/09/21 01:35:50;;;;;;;32.65;4.63;;;27.20;99.90;;;;;;5030623;28;20076;-73
2023/09/21 01:38:17;;;;;;;28.00;5.20;;;27.30;99.90;;;;;;5030378;28;20426;-73
2023/09/21 01:40:43;;;;;;;;;;;27.30;99.90;;;;;;5030478;28;20025;-74
2023/09/21 01:43:10;;;;;;;;;;;27.30;99.90;;;;;;5031060;28;19912;-73
2023/09/21 01:45:40;;;;;;;27.88;4.57;;;27.30;99.90;;;;;;5028826;28;19916;-73
2023/09/21 01:48:11;;;;;;;33.55;4.68;;;27.20;99.90;;;;;;5030380;28;20026;-74
2023/09/21 01:50:41;;;;;;;23.83;4.32;;;27.20;99.90;;;;;;5030441;28;20374;-74
2023/09/21 01:53:10;;;;;;;26.10;4.57;;;27.20;99.90;;;;;;5030176;28;20072;-73
2023/09/21 01:55:37;;;;;;;32.58;4.63;;;27.20;99.90;;;;;;5030630;28;20347;-73
2023/09/21 01:58:04;;;;;;;22.45;3.90;;;27.10;99.90;;;;;;5028655;28;20065;-74
2023/09/21 02:00:36;;;;;;;33.17;5.00;;;27.00;99.90;;;;;;5031737;28;20026;-73
2023/09/21 02:03:06;;;;;;;34.00;5.00;;;27.00;99.90;;;;;;5034010;28;20037;-73
2023/09/21 02:05:33;;;;;;;27.13;4.30;;;27.00;99.90;;;;;;5033766;28;20018;-74
2023/09/21 02:07:59;;;;;;;23.02;4.63;;;27.00;99.90;;;;;;5033317;28;20025;-72
2023/09/21 02:10:25;;;;;;;34.30;5.00;;;27.00;99.90;;;;;;5033631;28;20033;-72
2023/09/21 02:12:59;;;;;;;31.92;4.28;;;27.00;99.90;;;;;;5033244;28;20041;-73
2023/09/21 02:15:27;;;;;;;35.95;5.10;;;26.90;99.90;;;;;;5031871;28;20029;-73
2023/09/21 02:17:55;;;;;;;29.83;4.75;;;26.90;99.90;;;;;;5033190;28;20038;-73
2023/09/21 02:20:23;;;;;;;27.92;4.53;;;26.80;99.90;;;;;;5033178;28;20030;-73
2023/09/21 02:22:57;;;;;;;24.20;4.50;;;26.90;99.90;;;;;;5033713;28;20022;-74
2023/09/21 02:25:25;;;;;;;28.70;4.53;;;26.90;99.90;;;;;;5033298;28;20021;-73
2023/09/21 02:27:52;;;;;;;29.35;4.90;;;26.90;99.90;;;;;;5033202;28;20024;-73
2023/09/21 02:30:21;;;;;;;28.40;4.60;;;26.90;99.90;;;;;;5032629;28;20426;-73
2023/09/21 02:32:55;;;;;;;33.13;4.93;;;26.90;99.90;;;;;;5032220;28;20026;-73
2023/09/21 02:35:24;;;;;;;29.02;4.32;;;26.90;99.90;;;;;;5030826;28;20127;-72
2023/09/21 02:37:52;;;;;;;32.30;4.80;;;26.90;99.90;;;;;;5032052;28;20140;-73
2023/09/21 02:40:19;;;;;;;35.15;4.80;;;26.80;99.90;;;;;;5031663;28;20026;-72
2023/09/21 02:42:53;;;;;;;32.72;4.43;;;26.80;99.90;;;;;;5029919;28;20071;-73
2023/09/21 02:45:23;;;;;;;24.73;5.05;;;26.70;99.90;;;;;;5031964;28;20087;-73
2023/09/21 02:47:51;;;;;;;27.83;4.97;;;26.70;99.90;;;;;;5032108;28;20329;-73
2023/09/21 02:50:21;;;;;;;34.80;4.88;;;26.60;99.90;;;;;;5032107;28;20478;-73
2023/09/21 02:52:50;;;;;;;24.55;4.32;;;26.60;99.90;;;;;;5031922;28;20374;-73
2023/09/21 02:55:18;;;;;;;26.27;4.63;;;26.60;99.90;;;;;;5032183;28;20028;-73
2023/09/21 02:57:47;;;;;;;32.28;5.20;;;26.60;99.90;;;;;;5032388;28;20049;-73
2023/09/21 03:00:26;;;;;;;25.17;4.45;;;26.60;99.90;;;;;;5033667;28;20018;-74
2023/09/21 03:02:55;;;;;;;32.33;4.45;;;26.60;99.90;;;;;;5034057;28;20053;-73
2023/09/21 03:05:21;;;;;;;30.73;4.18;;;26.60;99.90;;;;;;5032215;28;20064;-73
2023/09/21 03:07:48;;;;;;;32.78;4.63;;;26.50;99.90;;;;;;5033742;28;20438;-73
2023/09/21 03:10:16;;;;;;;22.08;4.70;;;26.50;99.90;;;;;;5033657;28;20037;-73
2023/09/21 03:12:42;;;;;;;28.23;4.75;;;26.50;99.90;;;;;;5033635;28;20033;-73
2023/09/21 03:15:16;;;;;;;34.22;4.90;;;26.50;99.90;;;;;;5034225;28;20033;-73
2023/09/21 03:17:43;;;;;;;33.25;4.28;;;26.50;99.90;;;;;;5032307;28;20175;-74
2023/09/21 03:20:12;;;;;;;28.98;4.65;;;26.50;99.90;;;;;;5034135;28;20095;-73
2023/09/21 03:22:39;;;;;;;35.60;5.13;;;26.50;99.90;;;;;;5033816;28;20509;-73
2023/09/21 03:25:16;;;;;;;31.13;4.95;;;26.50;99.90;;;;;;5033641;28;20022;-74
2023/09/21 03:27:43;;;;;;;22.75;3.92;;;26.40;99.90;;;;;;5034543;28;20413;-73
2023/09/21 03:30:12;;;;;;;27.92;4.65;;;26.40;99.90;;;;;;5034029;28;20102;-73
2023/09/21 03:32:40;;;;;;;33.42;4.75;;;26.40;99.90;;;;;;5033872;28;20029;-73
2023/09/21 03:35:11;;;;;;;26.13;4.22;;;26.40;99.90;;;;;;5033780;28;20481;-73
2023/09/21 03:37:40;;;;;;;26.83;4.55;;;26.40;99.90;;;;;;5034199;28;20421;-73
2023/09/21 03:40:06;;;;;;;30.92;4.15;;;26.40;99.90;;;;;;5033556;28;20024;-73
2023/09/21 03:42:33;;;;;;;25.17;4.57;;;26.40;99.90;;;;;;5034182;28;20041;-73
2023/09/21 03:44:59;;;;;;;35.38;4.85;;;26.40;99.90;;;;;;5032359;28;20378;-73
2023/09/21 03:47:25;;;;;;;25.35;4.70;;;26.40;99.90;;;;;;5032170;28;20055;-74
2023/09/21 03:49:51;;;;;;;22.13;4.93;;;26.40;99.90;;;;;;5034140;28;20022;-73
2023/09/21 03:52:17;;;;;;;33.80;5.05;;;26.40;99.90;;;;;;5033818;28;20378;-73
2023/09/21 03:54:45;;;;;;;26.83;5.00;;;26.40;99.90;;;;;;5033557;28;20508;-73
2023/09/21 03:57:15;;;;;;;31.58;4.65;;;26.40;99.90;;;;;;5033322;28;20029;-73
2023/09/21 03:59:42;;;;;;;30.65;5.05;;;26.40;99.90;;;;;;5032337;28;20378;-73
2023/09/21 04:02:09;;;;;;;26.30;4.90;;;26.40;99.90;;;;;;5033790;28;20025;-73
2023/09/21 04:04:36;;;;;;;26.58;4.57;;;26.30;99.90;;;;;;5033739;28;20021;-73
2023/09/21 04:07:02;;;;;;;31.20;4.63;;;26.30;99.90;;;;;;5033169;28;20099;-73
2023/09/21 04:09:29;;;;;;;23.73;4.53;;;26.30;99.90;;;;;;5033644;28;20104;-73
2023/09/21 04:11:57;;;;;;;26.67;4.72;;;26.30;99.90;;;;;;5032867;28;20037;-73
2023/09/21 04:14:29;;;;;;;31.88;4.63;;;26.30;99.90;;;;;;5033044;28;20032;-73
2023/09/21 04:16:56;;;;;;;26.65;4.40;;;26.20;99.90;;;;;;5033417;28;20026;-73
2023/09/21 04:19:23;;;;;;;36.83;4.72;;;26.20;99.90;;;;;;5031979;28;20037;-73
2023/09/21 04:21:50;;;;;;;32.05;4.28;;;26.20;99.90;;;;;;5033217;28;20099;-74
2023/09/21 04:24:17;;;;;;;34.22;5.43;;;26.10;99.90;;;;;;5032707;28;20032;-72
2023/09/21 04:26:43;;;;;;;32.85;4.88;;;26.10;99.90;;;;;;5033111;28;20029;-73
2023/09/21 04:29:11;;;;;;;29.40;5.00;;;26.10;99.90;;;;;;5033250;28;20028;-72
2023/09/21 04:31:38;;;;;;;35.92;5.72;;;26.10;99.90;;;;;;5033064;28;20040;-72
2023/09/21 04:34:05;;;;;;;35.58;5.20;;;26.10;99.90;;;;;;5033510;28;20018;-72
2023/09/21 04:36:31;;;;;;;;;;;26.00;99.90;;;;;;5033390;28;20032;-73
2023/09/21 04:38:56;;;;;;;;;;;26.00;99.90;;;;;;5034037;28;20000;-73
2023/09/21 04:41:23;;;;;;;33.03;4.60;;;26.00;99.90;;;;;;5032897;28;20282;-73
2023/09/21 04:43:49;;;;;;;25.90;4.97;;;26.00;99.90;;;;;;5032964;28;20029;-72
2023/09/21 04:46:17;;;;;;;27.67;5.07;;;26.00;99.90;;;;;;5031512;28;20070;-73
2023/09/21 04:48:43;;;;;;;30.17;5.10;;;26.00;99.90;;;;;;5032855;28;20034;-74
2023/09/21 04:51:17;;;;;;;32.80;5.38;;;26.00;99.90;;;;;;5033100;28;20021;-74
2023/09/21 04:53:43;;;;;;;36.20;5.70;;;26.00;99.90;;;;;;5032792;28;20037;-73
2023/09/21 04:56:09;;;;;;;41.35;5.07;;;26.00;99.90;;;;;;5032661;28;20021;-72
2023/09/21 04:58:35;;;;;;;23.67;4.28;;;25.90;99.90;;;;;;5032874;28;20037;-72
2023/09/21 05:01:10;;;;;;;28.45;4.95;;;26.00;99.90;;;;;;5033229;28;20080;-72
2023/09/21 05:03:39;;;;;;;28.75;4.97;;;26.00;99.90;;;;;;5032973;28;20030;-73
2023/09/21 05:06:05;;;;;;;30.52;5.00;;;25.90;99.90;;;;;;5032985;28;20036;-72
2023/09/21 05:08:36;;;;;;;28.83;4.15;;;25.90;99.90;;;;;;5032800;28;20123;-73
2023/09/21 05:11:04;;;;;;;30.63;4.43;;;25.90;99.90;;;;;;5032513;28;20026;-74
2023/09/21 05:13:31;;;;;;;22.65;3.90;;;25.90;99.90;;;;;;5030967;28;20053;-72
2023/09/21 05:15:57;;;;;;;25.90;4.63;;;25.90;99.90;;;;;;5032592;28;20030;-73
2023/09/21 05:18:23;;;;;;;22.92;3.97;;;25.90;99.90;;;;;;5032724;28;20033;-72
2023/09/21 05:20:50;;;;;;;34.58;4.55;;;26.00;99.90;;;;;;5032861;28;20029;-72
2023/09/21 05:23:16;;;;;;;35.47;5.13;;;26.00;99.90;;;;;;5032225;28;20060;-73
2023/09/21 05:25:42;;;;;;;24.63;4.47;;;26.00;99.90;;;;;;5032235;28;20389;-73
2023/09/21 05:28:08;;;;;;;31.80;4.90;;;26.00;99.90;;;;;;5029919;28;20362;-72
2023/09/21 05:30:35;;;;;;;29.02;4.88;;;25.90;99.90;;;;;;5031616;28;20029;-72
2023/09/21 05:33:01;;;;;;;28.60;4.55;;;26.00;99.90;;;;;;5030748;28;20093;-73
2023/09/21 05:35:27;;;;;;;47.47;5.90;;;26.00;99.90;;;;;;5032852;28;20087;-74
2023/09/21 05:37:54;;;;;;;34.55;4.95;;;26.00;99.90;;;;;;5035630;28;20112;-74
2023/09/21 05:40:21;;;;;;;31.35;4.60;;;26.00;99.90;;;;;;5035446;28;20067;-75
2023/09/21 05:42:47;;;;;;;23.02;4.30;;;26.10;99.90;;;;;;5035059;28;20474;-73
2023/09/21 05:45:13;;;;;;;27.42;4.38;;;26.00;99.90;;;;;;5034728;28;20478;-73
2023/09/21 05:47:40;;;;;;;24.70;3.67;;;26.00;99.90;;;;;;5034716;28;20045;-73
2023/09/21 05:50:07;;;;;;;23.40;4.20;;;26.10;99.90;;;;;;5034947;28;20378;-73
2023/09/21 05:52:35;;;;;;;25.60;4.10;;;26.20;99.90;;;;;;5034198;28;20468;-74
2023/09/21 05:55:02;;;;;;;28.65;4.80;;;26.30;99.90;;;;;;5032395;28;20505;-73
2023/09/21 05:57:29;;;;;;;28.77;4.88;;;26.30;99.90;;;;;;5033857;28;20049;-74
2023/09/21 05:59:55;;;;;;;24.95;4.28;;;26.30;99.90;;;;;;5033871;28;20539;-74
2023/09/21 06:02:22;;;;;;;31.42;5.38;;;26.20;99.90;;;;;;5034308;28;20118;-73
2023/09/21 06:04:48;;;;;;;31.67;5.93;;;26.20;99.90;;;;;;5034380;28;20041;-74
2023/09/21 06:07:14;;;;;;;31.75;5.53;;;26.10;99.90;;;;;;5033851;28;20045;-72
2023/09/21 06:09:44;;;;;;;29.58;3.97;;;26.20;99.90;;;;;;5033760;28;20041;-76
2023/09/21 06:12:11;;;;;;;25.08;3.85;;;26.30;99.90;;;;;;5033780;28;20032;-74
2023/09/21 06:14:37;;;;;;;34.67;4.20;;;26.50;99.90;;;;;;5033452;28;20460;-73
2023/09/21 06:17:06;;;;;;;26.25;3.85;;;26.60;99.90;;;;;;5033567;28;20049;-74
2023/09/21 06:19:33;;;;;;;23.88;3.97;;;26.80;99.90;;;;;;5034008;28;20572;-75
2023/09/21 06:21:59;;;;;;;24.50;3.50;;;27.00;99.90;;;;;;5034405;28;20071;-73
2023/09/21 06:24:25;;;;;;;27.63;4.00;;;27.20;99.90;;;;;;5034141;28;20018;-74
2023/09/21 06:26:54;;;;;;;28.17;4.07;;;27.30;99.90;;;;;;5033928;28;20116;-74
2023/09/21 06:29:22;;;;;;;19.02;3.60;;;27.60;99.90;;;;;;5033684;28;20049;-74
2023/09/21 06:31:52;;;;;;;23.63;3.60;;;27.70;99.90;;;;;;5032654;28;20029;-73
2023/09/21 06:34:22;;;;;;;30.30;4.03;;;27.80;99.90;;;;;;5033779;28;20022;-73
2023/09/21 06:36:48;;;;;;;27.33;4.03;;;28.20;99.90;;;;;;5034093;28;20579;-74
2023/09/21 06:39:16;;;;;;;23.15;3.30;;;28.50;99.90;;;;;;5034084;28;20032;-73
2023/09/21 06:41:44;;;;;;;22.67;3.42;;;28.60;99.90;;;;;;5033551;28;20112;-74
2023/09/21 06:44:10;;;;;;;18.40;3.55;;;29.00;99.90;;;;;;5034455;28;20381;-74
2023/09/21 06:46:37;;;;;;;23.23;3.45;;;29.90;99.90;;;;;;5031625;28;20049;-73
2023/09/21 06:49:04;;;;;;;;;;;30.10;99.90;;;;;;5033951;28;20052;-72
2023/09/21 06:51:30;;;;;;;19.20;2.92;;;29.80;99.90;;;;;;5031927;28;20294;-72
2023/09/21 06:54:00;;;;;;;21.92;2.92;;;29.90;99.90;;;;;;5033700;28;20105;-73
2023/09/21 06:56:31;;;;;;;21.60;3.08;;;30.70;99.90;;;;;;5031554;28;20029;-72
2023/09/21 06:58:57;;;;;;;26.50;2.78;;;31.00;99.90;;;;;;5031846;28;20038;-73
2023/09/21 07:01:26;;;;;;;19.65;2.72;;;31.60;99.80;;;;;;5033598;28;20083;-74
2023/09/21 07:03:52;;;;;;;22.08;2.55;;;32.40;98.70;;;;;;5032821;28;20121;-73
2023/09/21 07:06:22;;;;;;;14.50;2.40;;;32.40;97.40;;;;;;5033164;28;20025;-73
2023/09/21 07:08:48;;;;;;;25.45;2.60;;;32.60;97.00;;;;;;5032862;28;20026;-73
2023/09/21 07:11:16;;;;;;;25.98;2.70;;;34.00;96.50;;;;;;5032063;28;20093;-73
2023/09/21 07:13:48;;;;;;;15.30;2.33;;;33.90;95.50;;;;;;5032899;28;20044;-73
2023/09/21 07:16:15;;;;;;;16.65;2.45;;;33.70;94.90;;;;;;5032882;28;20095;-73
2023/09/21 07:18:42;;;;;;;18.52;2.65;;;33.20;94.90;;;;;;5031570;28;20450;-72
2023/09/21 07:21:08;;;;;;;17.48;2.30;;;32.80;95.10;;;;;;5033184;28;20026;-74
2023/09/21 07:23:34;;;;;;;;;;;32.10;94.50;;;;;;5033214;28;20100;-74
2023/09/21 07:26:01;;;;;;;18.55;2.47;;;32.10;94.80;;;;;;5032841;28;19936;-75
2023/09/21 07:28:29;;;;;;;17.35;2.10;;;32.90;94.10;;;;;;5031859;28;20029;-78
2023/09/21 07:30:55;;;;;;;17.45;3.03;;;32.60;92.60;;;;;;5033208;28;20078;-75
2023/09/21 07:33:22;;;;;;;;;;;33.20;92.90;;;;;;5032732;28;20385;-73
2023/09/21 07:35:50;;;;;;;16.30;3.60;;;32.90;91.30;;;;;;5032296;28;20000;-71
2023/09/21 07:38:18;;;;;;;24.42;2.42;;;33.40;92.30;;;;;;5032460;28;20486;-73
2023/09/21 07:40:44;;;;;;;15.32;2.22;;;33.60;88.90;;;;;;5032307;28;20136;-74
2023/09/21 07:43:10;;;;;;;15.65;2.08;;;33.50;89.20;;;;;;5032462;28;20030;-73
2023/09/21 07:45:38;;;;;;;17.42;2.53;;;33.60;89.30;;;;;;5032010;28;20037;-73
2023/09/21 07:48:05;;;;;;;16.67;2.33;;;33.10;90.00;;;;;;5032102;28;20024;-73
2023/09/21 07:50:35;;;;;;;20.70;2.75;;;32.30;91.30;;;;;;5031951;28;20029;-72
2023/09/21 07:53:05;;;;;;;29.25;2.90;;;32.30;91.00;;;;;;5031918;28;20013;-72
2023/09/21 07:55:33;;;;;;;20.92;2.60;;;32.40;91.10;;;;;;5029986;28;20048;-74
2023/09/21 07:58:00;;;;;;;23.42;3.08;;;32.90;91.10;;;;;;5031007;28;20434;-74
2023/09/21 08:00:26;;;;;;;17.35;2.70;;;32.80;91.20;;;;;;5031780;28;20101;-74
2023/09/21 08:02:53;;;;;;;37.75;3.72;;;32.80;91.30;;;;;;5031888;28;20034;-76
2023/09/21 08:05:20;;;;;;;23.15;3.30;;;33.20;91.30;;;;;;5029937;28;20060;-72
2023/09/21 08:07:49;;;;;;;26.98;4.07;;;33.40;91.70;;;;;;5031679;28;20120;-73
2023/09/21 08:10:15;;;;;;;17.08;2.58;;;33.80;92.60;;;;;;5031422;28;20026;-73
2023/09/21 08:12:42;;;;;;;23.48;3.53;;;33.80;91.50;;;;;;5030990;28;20025;-74
2023/09/21 08:15:12;;;;;;;25.55;3.42;;;33.70;92.50;;;;;;5029458;28;20029;-73
2023/09/21 08:17:38;;;;;;;23.20;2.75;;;34.00;92.90;;;;;;5031722;28;20116;-75
2023/09/21 08:20:09;;;;;;;17.77;3.00;;;33.60;92.60;;;;;;5031974;28;20373;-74
2023/09/21 08:22:36;;;;;;;23.27;3.20;;;34.10;92.20;;;;;;5030512;28;20112;-73
2023/09/21 08:25:04;;;;;;;25.98;3.42;;;34.10;92.00;;;;;;5032399;28;20044;-73
2023/09/21 08:27:30;;;;;;;29.63;3.50;;;33.70;92.80;;;;;;5030088;28;20030;-76
2023/09/21 08:29:57;;;;;;;30.70;4.32;;;32.90;93.40;;;;;;5031689;28;20032;-73
2023/09/21 08:32:27;;;;;;;32.85;4.60;;;32.50;93.60;;;;;;5031719;28;20393;-74
2023/09/21 08:34:53;;;;;;;23.08;3.67;;;33.10;94.00;;;;;;5031699;28;20027;-74
2023/09/21 08:37:19;;;;;;;23.88;3.58;;;33.70;93.40;;;;;;5030208;28;20053;-73
2023/09/21 08:39:45;;;;;;;19.85;3.10;;;33.90;93.40;;;;;;5030239;28;20363;-73
2023/09/21 08:42:12;;;;;;;28.48;3.65;;;33.80;93.70;;;;;;5031259;28;20423;-74
2023/09/21 08:44:43;;;;;;;20.60;3.60;;;34.30;94.00;;;;;;5031541;28;20109;-74
2023/09/21 08:47:20;;;;;;;24.58;3.80;;;34.40;93.90;;;;;;5029827;28;20064;-73
2023/09/21 08:49:47;;;;;;;25.08;3.80;;;34.40;94.70;;;;;;5031191;28;20486;-74
2023/09/21 08:52:14;;;;;;;22.77;3.38;;;34.80;94.40;;;;;;5031267;28;20366;-74
2023/09/21 08:54:41;;;;;;;29.73;4.72;;;34.90;94.50;;;;;;5031172;28;20053;-74
2023/09/21 08:57:11;;;;;;;25.98;3.67;;;34.60;95.10;;;;;;5031007;28;20037;-72
2023/09/21 08:59:45;;;;;;;21.95;3.65;;;34.30;95.30;;;;;;5031297;28;20041;-73
2023/09/21 09:02:15;;;;;;;27.73;3.78;;;33.80;95.90;;;;;;5029924;28;20047;-75
2023/09/21 09:04:42;;;;;;;33.67;3.80;;;33.60;96.50;;;;;;5031172;28;20021;-74
2023/09/21 09:07:10;;;;;;;28.08;4.57;;;33.60;96.60;;;;;;5031131;28;20071;-73
2023/09/21 09:09:39;;;;;;;32.40;4.03;;;33.60;96.70;;;;;;5032746;28;20021;-72
2023/09/21 09:12:25;;;;;;;28.15;4.05;;;33.40;97.20;;;;;;5035284;28;20083;-73
2023/09/21 09:14:54;;;;;;;40.75;4.38;;;33.60;97.30;;;;;;5035408;28;20022;-72
2023/09/21 09:17:20;;;;;;;26.27;3.78;;;33.30;97.50;;;;;;5033582;28;20061;-74
2023/09/21 09:19:47;;;;;;;27.52;3.97;;;32.80;98.30;;;;;;5034987;28;20058;-73
2023/09/21 09:22:16;;;;;;;34.65;3.80;;;32.60;98.80;;;;;;5034995;28;20097;-73
2023/09/21 09:24:47;;;;;;;23.02;3.88;;;32.60;99.10;;;;;;5035284;28;20330;-73
2023/09/21 09:27:14;;;;;;;20.70;3.72;;;32.80;99.00;;;;;;5034490;28;20021;-73
2023/09/21 09:29:51;;;;;;;24.30;3.55;;;32.90;99.20;;;;;;5034164;28;20045;-74
2023/09/21 09:32:18;;;;;;;24.95;3.55;;;33.10;99.00;;;;;;5034869;28;20026;-73
2023/09/21 09:34:47;;;;;;;22.25;4.32;;;33.10;98.90;;;;;;5034464;28;20474;-74
2023/09/21 09:37:17;;;;;;;22.40;4.68;;;33.00;99.40;;;;;;5033208;28;20119;-73
2023/09/21 09:39:44;;;;;;;21.90;3.40;;;33.20;99.30;;;;;;5034919;28;20166;-73
2023/09/21 09:42:13;;;;;;;25.35;3.72;;;33.30;99.40;;;;;;5034386;28;20030;-73
2023/09/21 09:44:45;;;;;;;25.58;3.83;;;33.40;99.40;;;;;;5034195;28;20385;-73
2023/09/21 09:47:14;;;;;;;34.17;4.32;;;33.00;99.50;;;;;;5034140;28;20148;-75
2023/09/21 09:49:46;;;;;;;32.67;4.07;;;33.20;99.60;;;;;;5034632;28;20021;-73
2023/09/21 09:52:18;;;;;;;24.85;3.58;;;33.30;99.70;;;;;;5034088;28;20045;-73
2023/09/21 09:54:48;;;;;;;27.10;4.10;;;33.30;99.90;;;;;;5034456;28;20157;-74
2023/09/21 09:57:16;;;;;;;27.85;4.20;;;33.20;99.90;;;;;;5034346;28;20030;-72
2023/09/21 09:59:44;;;;;;;25.45;4.15;;;33.20;99.90;;;;;;5033822;28;20112;-72
2023/09/21 10:02:16;;;;;;;28.30;4.00;;;33.50;99.90;;;;;;5033754;28;20354;-73
2023/09/21 10:04:46;;;;;;;22.13;3.67;;;33.80;99.90;;;;;;5033522;28;20405;-74
2023/09/21 10:07:16;;;;;;;23.75;3.78;;;33.80;99.80;;;;;;5033480;28;20045;-73
2023/09/21 10:09:44;;;;;;;27.70;4.00;;;33.80;99.90;;;;;;5032324;28;20472;-74
2023/09/21 10:12:11;;;;;;;20.85;3.45;;;33.90;99.90;;;;;;5033696;28;20038;-73
2023/09/21 10:14:43;;;;;;;30.70;4.18;;;33.70;99.90;;;;;;5033861;28;20131;-73
2023/09/21 10:17:15;;;;;;;24.52;3.83;;;33.80;99.90;;;;;;5034103;28;20451;-73
2023/09/21 10:19:43;;;;;;;23.15;4.25;;;33.70;99.90;;;;;;5034012;28;20032;-73
2023/09/21 10:22:23;;;;;;;40.53;3.80;;;33.30;99.90;;;;;;5033297;28;20139;-74
2023/09/21 10:24:54;;;;;;;37.92;4.40;;;33.40;99.90;;;;;;5033603;28;20489;-74
2023/09/21 10:27:24;;;;;;;30.50;3.67;;;32.70;99.90;;;;;;5033565;28;20113;-74
2023/09/21 10:30:00;;;;;;;26.38;3.78;;;32.70;99.90;;;;;;5034109;28;20033;-72
2023/09/21 10:32:43;;;;;;;34.42;7.93;;;32.80;99.90;;;;;;5033732;28;20041;-73
2023/09/21 10:35:21;;;;;;;30.17;4.00;;;32.60;99.90;;;;;;5033805;28;20037;-74
2023/09/21 10:37:51;;;;;;;28.10;3.90;;;32.90;99.90;;;;;;5033597;28;20076;-74
2023/09/21 10:40:25;;;;;;;31.45;4.22;;;33.20;99.90;;;;;;5033894;28;20104;-73
2023/09/21 10:42:51;;;;;;;17.08;3.53;;;33.20;99.90;;;;;;5033247;28;20195;-74
2023/09/21 10:45:18;;;;;;;24.52;3.70;;;33.30;99.90;;;;;;5033258;28;20075;-73
2023/09/21 10:47:49;;;;;;;25.25;3.67;;;33.60;99.90;;;;;;5033170;28;20437;-74
2023/09/21 10:50:19;;;;;;;19.75;3.33;;;33.60;99.90;;;;;;5032494;28;20021;-73
2023/09/21 10:52:51;;;;;;;27.83;4.20;;;33.60;99.90;;;;;;5033247;28;20075;-72
2023/09/21 10:55:18;;;;;;;19.77;3.38;;;33.10;99.90;;;;;;5033651;28;20407;-73
2023/09/21 10:57:46;;;;;;;26.52;4.45;;;33.10;99.90;;;;;;5032553;28;20435;-73
2023/09/21 11:00:20;;;;;;;27.23;4.10;;;33.00;99.90;;;;;;5032928;28;20022;-72
2023/09/21 11:02:49;;;;;;;23.73;4.32;;;32.50;99.90;;;;;;5032684;28;20033;-73
2023/09/21 11:05:17;;;;;;;27.67;4.10;;;32.90;99.90;;;;;;5032934;28;20029;-73
2023/09/21 11:07:47;;;;;;;25.25;4.10;;;32.50;99.90;;;;;;5033037;28;20029;-73
2023/09/21 11:10:14;;;;;;;26.73;3.65;;;32.70;99.90;;;;;;5033112;28;20073;-72
2023/09/21 11:12:41;;;;;;;18.73;3.35;;;32.30;99.90;;;;;;5032806;28;20060;-73
2023/09/21 11:15:12;;;;;;;39.97;4.90;;;32.10;99.90;;;;;;5031745;28;20021;-73
2023/09/21 11:17:43;;;;;;;34.15;4.60;;;32.30;99.90;;;;;;5032391;28;20048;-72
2023/09/21 11:20:19;;;;;;;25.77;4.07;;;32.50;99.90;;;;;;5033688;28;20100;-72
2023/09/21 11:22:48;;;;;;;27.33;4.10;;;32.60;99.90;;;;;;5033476;28;20025;-72
2023/09/21 11:25:20;;;;;;;21.75;3.63;;;32.80;99.90;;;;;;5032947;28;20470;-73
2023/09/21 11:27:46;;;;;;;26.90;3.95;;;32.90;99.90;;;;;;5032740;28;20044;-73
2023/09/21 11:30:13;;;;;;;27.42;3.90;;;32.80;99.90;;;;;;5033508;28;20099;-73
2023/09/21 11:32:45;;;;;;;28.15;3.75;;;32.60;99.90;;;;;;5032976;28;20040;-72
2023/09/21 11:35:12;;;;;;;22.52;3.72;;;32.40;99.90;;;;;;5033622;28;20075;-73
2023/09/21 11:37:38;;;;;;;21.83;3.35;;;32.50;99.90;;;;;;5032286;28;20092;-73
2023/09/21 11:40:11;;;;;;;22.77;3.05;;;32.60;99.90;;;;;;5032380;28;20036;-73
2023/09/21 11:42:43;;;;;;;25.05;3.78;;;32.60;99.90;;;;;;5032594;28;20026;-73
2023/09/21 11:45:24;;;;;;;22.98;4.20;;;32.70;99.90;;;;;;5032837;28;20056;-73
2023/09/21 11:47:57;;;;;;;25.85;3.55;;;33.00;99.90;;;;;;5032888;28;20033;-73
2023/09/21 11:50:30;;;;;;;34.70;4.28;;;32.80;99.90;;;;;;5032990;28;20096;-73
2023/09/21 11:52:56;;;;;;;33.13;4.07;;;32.80;99.90;;;;;;5033544;28;20534;-73
2023/09/21 11:55:26;;;;;;;27.30;3.63;;;32.80;99.90;;;;;;5033204;28;20045;-73
2023/09/21 11:58:05;;;;;;;24.73;3.58;;;33.10;99.90;;;;;;5032942;28;20437;-73
2023/09/21 12:00:51;;;;;;;23.05;3.63;;;33.10;99.90;;;;;;5031356;28;20100;-73
2023/09/21 12:03:23;;;;;;;22.60;3.28;;;33.10;99.90;;;;;;5032911;28;20021;-73
2023/09/21 12:05:50;;;;;;;21.25;3.45;;;33.20;99.90;;;;;;5032860;28;20022;-74
2023/09/21 12:08:19;;;;;;;25.88;3.58;;;33.30;99.90;;;;;;5032650;28;20025;-73
2023/09/21 12:10:47;;;;;;;27.80;3.20;;;33.60;99.90;;;;;;5032924;28;20108;-73
2023/09/21 12:13:14;;;;;;;25.10;3.40;;;33.70;99.90;;;;;;5032968;28;20026;-73
2023/09/21 12:15:42;;;;;;;16.73;3.50;;;33.70;99.90;;;;;;5032973;28;20124;-73
2023/09/21 12:18:10;;;;;;;25.20;4.00;;;33.60;99.90;;;;;;5032906;28;20029;-73
2023/09/21 12:20:37;;;;;;;24.65;3.78;;;33.60;99.90;;;;;;5033039;28;20556;-73
2023/09/21 12:23:05;;;;;;;13.90;3.08;;;33.80;99.90;;;;;;5031884;28;20080;-73
2023/09/21 12:25:32;;;;;;;24.58;3.65;;;33.40;99.90;;;;;;5032934;28;20053;-74
2023/09/21 12:27:59;;;;;;;16.85;3.00;;;33.30;99.90;;;;;;5032784;28;20106;-73
2023/09/21 12:30:24;;;;;;;;;;;33.00;99.90;;;;;;5033761;28;20034;-72
2023/09/21 12:32:51;;;;;;;26.65;4.30;;;33.20;99.90;;;;;;5033032;28;19905;-73
2023/09/21 12:35:19;;;;;;;23.70;3.40;;;32.90;99.90;;;;;;5033540;28;20029;-73
2023/09/21 12:37:45;;;;;;;29.15;4.15;;;32.80;99.90;;;;;;5032886;28;20037;-74
2023/09/21 12:40:12;;;;;;;;;;;32.80;99.90;;;;;;5033722;28;20021;-74
2023/09/21 12:42:41;;;;;;;23.92;3.83;;;33.00;99.90;;;;;;5032611;28;19979;-74
2023/09/21 12:45:11;;;;;;;44.42;4.07;;;32.00;99.90;;;;;;5032248;28;20029;-73
2023/09/21 12:47:39;;;;;;;36.80;4.57;;;32.30;99.90;;;;;;5032524;28;20041;-73